LEVC/VLC METAR and TAF weather

Enter ICAO airport designator
Station Type Date Time Source
LEVC METAR 2019/12/11 12:00 UTC NOAA

LEVC 111200Z 24013KT CAVOK 16/04 Q1017 NOSIG


Station Type Date Time Source
LEVC Decoded METAR 2019/12/11 12:00 UTC NOAA

Valencia / Aeropuerto, Spain (LEVC) 39-30N 000-28W 62M
Dec 11, 2019 - 07:00 AM EST / 2019.12.11 1200 UTC
Wind: from the WSW (240 degrees) at 15 MPH (13 KT):0
Visibility: greater than 7 mile(s):0
Temperature: 60 F (16 C)
Dew Point: 39 F (4 C)
Relative Humidity: 44%
Pressure (altimeter): 30.03 in. Hg (1017 hPa)
ob: LEVC 111200Z 24013KT CAVOK 16/04 Q1017 NOSIG
cycle: 12

Station Type Date Time Source
LEVC TAF 2019/12/11 12:27 UTC NOAA

TAF LEVC 111100Z 1112/1212 27013KT 9999 FEW040 TX19/1113Z TN07/1206Z PROB30
TEMPO 1112/1116 28018G30KT
TEMPO 1116/1118 34015G27KT
TEMPO 1119/1202 VRB05KT

Example: see airport list